createdAt,value
2023-04-11T00:00:31.708Z,56.86
2023-04-11T00:01:34.187Z,56.94
2023-04-11T00:02:36.399Z,56.79
2023-04-11T00:03:38.958Z,56.83
2023-04-11T00:04:41.627Z,56.84
2023-04-11T00:05:44.247Z,56.80
2023-04-11T00:06:47.513Z,56.75
2023-04-11T00:07:49.869Z,56.88
2023-04-11T00:08:52.794Z,56.92
2023-04-11T00:09:55.113Z,56.93
2023-04-11T00:10:58.543Z,56.98
2023-04-11T00:12:00.740Z,57.07
2023-04-11T00:13:02.913Z,57.17
2023-04-11T00:14:05.277Z,57.27
2023-04-11T00:15:07.943Z,57.24
2023-04-11T00:16:10.693Z,57.23
2023-04-11T00:17:13.073Z,57.24
2023-04-11T00:18:15.568Z,57.40
2023-04-11T00:19:17.555Z,57.23
2023-04-11T00:20:19.949Z,57.37
2023-04-11T00:21:22.450Z,57.24
2023-04-11T00:22:24.422Z,57.16
2023-04-11T00:23:26.282Z,57.14
2023-04-11T00:24:28.200Z,56.94
2023-04-11T00:25:30.398Z,56.90
2023-04-11T00:26:33.105Z,56.86
2023-04-11T00:27:35.456Z,56.79
2023-04-11T00:28:37.527Z,56.79
2023-04-11T00:29:40.316Z,56.73
2023-04-11T00:30:42.384Z,56.67
2023-04-11T00:31:44.577Z,56.55
2023-04-11T00:32:46.663Z,56.40
2023-04-11T00:33:49.229Z,56.33
2023-04-11T00:34:51.498Z,56.59
2023-04-11T00:35:53.642Z,56.75
2023-04-11T00:36:56.602Z,56.79
2023-04-11T00:37:58.769Z,56.68
2023-04-11T00:39:00.739Z,56.50
2023-04-11T00:40:07.369Z,56.63
2023-04-11T00:41:10.201Z,56.65
2023-04-11T00:42:12.209Z,56.69
2023-04-11T00:43:16.145Z,56.70
2023-04-11T00:44:18.024Z,56.70
2023-04-11T00:45:20.167Z,56.74
2023-04-11T00:46:22.642Z,56.82
2023-04-11T00:47:25.008Z,56.70
2023-04-11T00:48:27.073Z,56.70
2023-04-11T00:49:30.601Z,56.60
2023-04-11T00:50:32.814Z,56.61
2023-04-11T00:51:35.188Z,56.71
2023-04-11T00:52:37.963Z,56.81
2023-04-11T00:53:40.700Z,56.98
2023-04-11T00:54:42.863Z,57.02
2023-04-11T00:55:44.940Z,57.04
2023-04-11T00:56:47.628Z,57.26
2023-04-11T00:57:53.261Z,57.22
2023-04-11T00:58:56.459Z,56.88
2023-04-11T01:00:02.193Z,56.79
2023-04-11T01:01:05.285Z,56.70
2023-04-11T01:02:09.907Z,56.65
2023-04-11T01:03:12.490Z,56.72
2023-04-11T01:04:16.539Z,56.67
2023-04-11T01:05:19.053Z,56.64
2023-04-11T01:06:22.481Z,56.56
2023-04-11T01:07:26.306Z,56.55
2023-04-11T01:08:29.194Z,56.44
2023-04-11T01:09:33.716Z,56.36
2023-04-11T01:10:36.592Z,56.32
2023-04-11T01:11:39.262Z,56.40
2023-04-11T01:12:43.391Z,56.57
2023-04-11T01:13:46.299Z,56.74
2023-04-11T01:14:48.745Z,56.55
2023-04-11T01:15:50.722Z,56.33
2023-04-11T01:16:53.078Z,56.03
2023-04-11T01:17:55.590Z,56.10
2023-04-11T01:18:58.166Z,56.24
2023-04-11T01:20:00.935Z,56.31
2023-04-11T01:21:03.239Z,56.36
2023-04-11T01:22:05.944Z,56.37
2023-04-11T01:23:09.123Z,56.30
2023-04-11T01:24:11.340Z,56.49
2023-04-11T01:25:15.064Z,56.29
2023-04-11T01:26:18.226Z,56.26
2023-04-11T01:27:20.181Z,56.06
2023-04-11T01:28:23.204Z,56.22
2023-04-11T01:29:26.935Z,56.22
2023-04-11T01:30:29.255Z,56.14
2023-04-11T01:31:31.806Z,56.31
2023-04-11T01:32:34.314Z,56.45
2023-04-11T01:33:36.668Z,56.56
2023-04-11T01:34:40.532Z,56.73
2023-04-11T01:35:43.659Z,56.91
2023-04-11T01:36:47.616Z,57.04
2023-04-11T01:37:49.961Z,57.05
2023-04-11T01:38:52.806Z,57.13
2023-04-11T01:39:54.887Z,57.05
2023-04-11T01:40:58.889Z,57.11
2023-04-11T01:42:01.528Z,57.03
2023-04-11T01:43:03.650Z,57.07
2023-04-11T01:44:05.645Z,57.00
2023-04-11T01:45:09.877Z,56.65
2023-04-11T01:46:14.662Z,56.60
2023-04-11T01:47:16.980Z,56.44
2023-04-11T01:48:20.927Z,56.35
2023-04-11T01:49:24.790Z,56.29
2023-04-11T01:50:27.763Z,56.28
2023-04-11T01:51:30.732Z,56.29
2023-04-11T01:52:34.035Z,56.46
2023-04-11T01:53:36.206Z,56.58
2023-04-11T01:54:38.613Z,56.51
2023-04-11T01:55:41.047Z,56.63
2023-04-11T01:56:43.762Z,56.77
2023-04-11T01:57:47.696Z,56.89
2023-04-11T01:58:50.216Z,57.05
2023-04-11T01:59:52.852Z,57.16
2023-04-11T02:00:54.896Z,57.25
2023-04-11T02:01:58.054Z,57.24
2023-04-11T02:03:00.743Z,57.32
2023-04-11T02:04:04.217Z,57.45
2023-04-11T02:05:08.193Z,57.42
2023-04-11T02:06:10.860Z,57.34
2023-04-11T02:07:12.799Z,57.42
2023-04-11T02:08:15.153Z,57.39
2023-04-11T02:09:17.159Z,57.42
2023-04-11T02:10:19.671Z,57.48
2023-04-11T02:11:21.631Z,57.66
2023-04-11T02:12:44.192Z,57.72
2023-04-11T02:13:48.218Z,57.78
2023-04-11T02:14:50.112Z,57.72
2023-04-11T02:15:52.321Z,57.39
2023-04-11T02:16:55.562Z,57.44
2023-04-11T02:17:58.398Z,57.35
2023-04-11T02:19:00.455Z,57.33
2023-04-11T02:20:04.755Z,57.37
2023-04-11T02:21:07.000Z,57.40
2023-04-11T02:22:09.431Z,57.37
2023-04-11T02:23:11.269Z,57.42
2023-04-11T02:24:14.879Z,57.45
2023-04-11T02:25:17.068Z,57.39
2023-04-11T02:26:19.139Z,57.55
2023-04-11T02:27:21.466Z,57.41
2023-04-11T02:28:23.568Z,57.27
2023-04-11T02:29:28.194Z,57.34
2023-04-11T02:30:30.321Z,57.30
2023-04-11T02:31:32.809Z,57.11
2023-04-11T02:32:35.905Z,56.96
2023-04-11T02:33:37.841Z,57.02
2023-04-11T02:34:40.642Z,57.07
2023-04-11T02:35:42.804Z,57.22
2023-04-11T02:36:44.846Z,56.97
2023-04-11T02:37:47.110Z,57.01
2023-04-11T02:38:49.056Z,57.07
2023-04-11T02:39:51.045Z,57.03
2023-04-11T02:40:53.117Z,56.88
2023-04-11T02:41:55.008Z,56.97
2023-04-11T02:42:57.032Z,56.84
2023-04-11T02:43:59.373Z,56.92
2023-04-11T02:45:02.107Z,57.09
2023-04-11T02:46:12.600Z,57.02
2023-04-11T02:47:08.684Z,56.92
2023-04-11T02:48:11.322Z,56.83
2023-04-11T02:49:15.746Z,56.90
2023-04-11T02:50:20.156Z,56.63
2023-04-11T02:51:24.181Z,56.68
2023-04-11T02:52:26.997Z,56.84
2023-04-11T02:53:29.176Z,56.84
2023-04-11T02:54:32.202Z,56.94
2023-04-11T02:55:35.402Z,56.84
2023-04-11T02:56:38.066Z,57.07
2023-04-11T02:57:40.180Z,57.09
2023-04-11T02:58:45.028Z,57.05
2023-04-11T02:59:47.962Z,57.29
2023-04-11T03:00:54.153Z,57.11
2023-04-11T03:03:08.425Z,57.21
2023-04-11T03:04:12.771Z,57.58
2023-04-11T03:05:21.024Z,57.47
2023-04-11T03:06:24.584Z,57.61
2023-04-11T03:07:30.092Z,57.45
2023-04-11T03:08:33.389Z,57.51
2023-04-11T03:09:37.082Z,57.38
2023-04-11T03:10:40.493Z,57.39
2023-04-11T03:11:46.911Z,57.13
2023-04-11T03:12:49.489Z,57.08
2023-04-11T03:13:51.455Z,57.25
2023-04-11T03:14:53.314Z,57.50
2023-04-11T03:15:55.955Z,57.24
2023-04-11T03:17:00.008Z,56.97
2023-04-11T03:18:03.299Z,56.98
2023-04-11T03:19:05.432Z,56.79
2023-04-11T03:20:08.884Z,56.73
2023-04-11T03:21:10.974Z,56.78
2023-04-11T03:22:15.111Z,56.83
2023-04-11T03:23:20.370Z,56.72
2023-04-11T03:24:22.784Z,56.73
2023-04-11T03:25:26.113Z,56.64
2023-04-11T03:26:28.887Z,56.65
2023-04-11T03:27:32.865Z,56.71
2023-04-11T03:28:36.766Z,56.73
2023-04-11T03:29:39.166Z,56.58
2023-04-11T03:30:46.026Z,56.49
2023-04-11T03:31:50.524Z,56.36
2023-04-11T03:32:53.657Z,56.65
2023-04-11T03:33:55.850Z,56.57
2023-04-11T03:34:59.993Z,56.62
2023-04-11T03:36:02.301Z,56.71
2023-04-11T03:37:04.620Z,56.71
2023-04-11T03:38:07.616Z,56.75
2023-04-11T03:39:09.632Z,56.91
2023-04-11T03:40:12.949Z,56.79
2023-04-11T03:41:16.907Z,56.69
2023-04-11T03:42:20.506Z,56.85
2023-04-11T03:43:24.172Z,56.84
2023-04-11T03:44:27.092Z,56.73
2023-04-11T03:45:29.541Z,56.72
2023-04-11T03:46:33.215Z,56.72
2023-04-11T03:47:38.358Z,56.69
2023-04-11T03:48:42.632Z,56.73
2023-04-11T03:49:45.077Z,56.92
2023-04-11T03:50:48.091Z,56.63
2023-04-11T03:51:52.151Z,56.54
2023-04-11T03:52:54.218Z,56.59
2023-04-11T03:53:56.629Z,56.59
2023-04-11T03:55:01.803Z,56.11
2023-04-11T03:56:04.428Z,55.96
2023-04-11T03:57:08.432Z,56.01
2023-04-11T03:58:11.733Z,55.75
2023-04-11T03:59:15.444Z,55.60
2023-04-11T04:00:19.845Z,55.53
2023-04-11T04:01:23.904Z,55.39
2023-04-11T04:02:27.037Z,55.60
2023-04-11T04:03:29.889Z,55.45
2023-04-11T04:04:33.481Z,55.19
2023-04-11T04:05:40.755Z,55.13
2023-04-11T04:06:44.063Z,55.32
2023-04-11T04:07:46.724Z,55.29
2023-04-11T04:08:56.967Z,55.25
2023-04-11T04:10:00.179Z,55.23
2023-04-11T04:11:03.136Z,54.97
2023-04-11T04:12:07.065Z,54.93
2023-04-11T04:13:11.057Z,55.12
2023-04-11T04:14:15.078Z,55.13
2023-04-11T04:15:17.597Z,54.94
2023-04-11T04:16:21.775Z,54.94
2023-04-11T04:17:27.081Z,55.09
2023-04-11T04:18:29.699Z,55.19
2023-04-11T04:19:31.757Z,55.09
2023-04-11T04:20:34.248Z,55.03
2023-04-11T04:21:36.078Z,55.15
2023-04-11T04:22:38.187Z,55.20
2023-04-11T04:23:40.843Z,55.17
2023-04-11T04:24:57.081Z,55.17
2023-04-11T04:26:01.537Z,55.31
2023-04-11T04:27:05.239Z,55.27
2023-04-11T04:28:18.458Z,55.25
2023-04-11T04:29:20.722Z,55.46
2023-04-11T04:30:25.003Z,55.31
2023-04-11T04:31:29.758Z,55.45
2023-04-11T04:32:35.257Z,55.60
2023-04-11T04:33:39.738Z,55.46
2023-04-11T04:34:44.481Z,55.30
2023-04-11T04:35:46.898Z,55.37
2023-04-11T04:36:49.494Z,55.19
2023-04-11T04:37:58.154Z,55.12
2023-04-11T04:39:02.564Z,54.96
2023-04-11T04:40:07.541Z,55.00
2023-04-11T04:41:11.479Z,55.62
2023-04-11T04:42:14.606Z,55.30
2023-04-11T04:43:20.295Z,55.77
2023-04-11T04:44:24.341Z,55.63
2023-04-11T04:45:29.075Z,55.30
2023-04-11T04:46:33.190Z,55.31
2023-04-11T04:47:36.780Z,55.27
2023-04-11T04:48:39.086Z,55.37
2023-04-11T04:49:42.744Z,55.59
2023-04-11T04:50:45.134Z,55.58
2023-04-11T04:51:47.615Z,55.19
2023-04-11T04:52:50.813Z,54.79
2023-04-11T04:53:54.391Z,54.33
2023-04-11T04:54:58.049Z,53.99
2023-04-11T04:56:00.983Z,53.50
2023-04-11T04:57:04.281Z,52.63
2023-04-11T04:58:07.635Z,52.49
2023-04-11T04:59:10.371Z,52.06
2023-04-11T05:00:13.502Z,51.48
2023-04-11T05:01:17.779Z,51.31
2023-04-11T05:02:20.742Z,51.06
2023-04-11T05:03:23.922Z,50.55
2023-04-11T05:04:26.879Z,50.34
2023-04-11T05:05:33.533Z,49.76
2023-04-11T05:06:36.407Z,49.55
2023-04-11T05:07:38.927Z,49.35
2023-04-11T05:08:40.932Z,49.41
2023-04-11T05:09:45.049Z,49.33
2023-04-11T05:10:49.642Z,49.32
2023-04-11T05:11:52.546Z,48.86
2023-04-11T05:12:56.402Z,48.95
2023-04-11T05:13:58.693Z,48.66
2023-04-11T05:15:15.014Z,48.34
2023-04-11T05:16:18.738Z,47.82
2023-04-11T05:17:22.737Z,47.56
2023-04-11T05:18:25.761Z,47.72
2023-04-11T05:19:27.828Z,47.39
2023-04-11T05:20:30.041Z,47.46
2023-04-11T05:21:33.501Z,47.35
2023-04-11T05:22:36.330Z,46.69
2023-04-11T05:23:38.634Z,46.32
2023-04-11T05:24:40.784Z,46.35
2023-04-11T05:25:45.107Z,46.15
2023-04-11T05:26:48.463Z,45.88
2023-04-11T05:27:52.347Z,45.74
2023-04-11T05:28:56.549Z,45.71
2023-04-11T05:29:58.905Z,45.75
2023-04-11T05:31:02.370Z,46.16
2023-04-11T05:32:05.412Z,45.78
2023-04-11T05:33:08.749Z,45.80
2023-04-11T05:34:11.803Z,45.35
2023-04-11T05:35:14.164Z,45.44
2023-04-11T05:36:25.065Z,45.48
2023-04-11T05:37:27.169Z,44.87
2023-04-11T05:38:29.333Z,44.48
2023-04-11T05:39:31.384Z,44.66
2023-04-11T05:40:33.526Z,44.41
2023-04-11T05:41:35.530Z,44.86
2023-04-11T05:42:39.025Z,45.28
2023-04-11T05:43:41.022Z,45.34
2023-04-11T05:44:44.787Z,45.05
2023-04-11T05:45:47.135Z,45.05
2023-04-11T05:46:51.718Z,45.15
2023-04-11T05:47:53.928Z,45.29
2023-04-11T05:48:56.021Z,45.41
2023-04-11T05:49:58.777Z,45.46
2023-04-11T05:51:14.851Z,45.69
2023-04-11T05:52:16.880Z,45.93
2023-04-11T05:53:19.620Z,46.03
2023-04-11T05:55:44.360Z,46.02
2023-04-11T05:56:46.493Z,46.44
2023-04-11T05:57:48.727Z,46.71
2023-04-11T05:58:50.618Z,46.77
2023-04-11T05:59:53.176Z,46.78
2023-04-11T06:00:57.723Z,46.66
2023-04-11T06:02:00.086Z,47.06
2023-04-11T06:03:03.555Z,46.93
2023-04-11T06:04:05.984Z,46.99
2023-04-11T06:05:11.254Z,47.10
2023-04-11T06:06:14.105Z,47.23
2023-04-11T06:07:16.261Z,47.30
2023-04-11T06:08:18.587Z,47.60
2023-04-11T06:09:21.197Z,47.72
2023-04-11T06:10:23.861Z,47.68
2023-04-11T06:11:25.820Z,47.89
2023-04-11T06:12:27.873Z,47.89
2023-04-11T06:13:29.930Z,47.93
2023-04-11T06:14:32.293Z,48.16
2023-04-11T06:15:34.914Z,48.05
2023-04-11T06:16:38.554Z,48.35
2023-04-11T06:17:40.619Z,48.53
2023-04-11T06:18:42.656Z,48.82
2023-04-11T06:19:44.674Z,48.95
2023-04-11T06:20:47.083Z,48.74
2023-04-11T06:21:49.667Z,48.94
2023-04-11T06:22:51.768Z,48.76
2023-04-11T06:23:54.248Z,48.83
2023-04-11T06:24:56.820Z,48.87
2023-04-11T06:25:59.396Z,49.06
2023-04-11T06:27:01.974Z,48.72
2023-04-11T06:28:04.319Z,48.87
2023-04-11T06:29:07.215Z,48.75
2023-04-11T06:30:10.587Z,48.57
2023-04-11T06:31:12.661Z,48.58
2023-04-11T06:32:14.700Z,48.67
2023-04-11T06:33:16.798Z,48.73
2023-04-11T06:34:18.906Z,48.99
2023-04-11T06:35:21.121Z,49.04
2023-04-11T06:36:23.177Z,48.73
2023-04-11T06:37:25.144Z,49.03
2023-04-11T06:38:28.266Z,49.10
2023-04-11T06:39:30.326Z,49.12
2023-04-11T06:40:32.539Z,49.17
2023-04-11T06:41:34.743Z,48.93
2023-04-11T06:42:37.218Z,49.03
2023-04-11T06:43:39.206Z,49.03
2023-04-11T06:44:41.243Z,49.28
2023-04-11T06:45:43.802Z,49.14
2023-04-11T06:46:47.305Z,49.23
2023-04-11T06:47:49.580Z,49.36
2023-04-11T06:48:52.444Z,49.24
2023-04-11T06:49:55.642Z,49.26
2023-04-11T06:50:58.460Z,49.07
2023-04-11T06:52:01.148Z,49.35
2023-04-11T06:53:05.306Z,49.15
2023-04-11T06:54:11.284Z,49.25
2023-04-11T06:55:13.777Z,48.99
2023-04-11T06:56:16.972Z,48.99
2023-04-11T06:57:20.566Z,48.68
2023-04-11T06:58:23.184Z,48.47
2023-04-11T06:59:25.025Z,48.51
2023-04-11T07:00:27.566Z,49.04
2023-04-11T07:01:30.019Z,49.15
2023-04-11T07:02:34.441Z,48.99
2023-04-11T07:03:38.597Z,48.83
2023-04-11T07:04:43.647Z,49.01
2023-04-11T07:05:47.859Z,49.08
2023-04-11T07:06:53.540Z,49.33
2023-04-11T07:07:57.688Z,49.22
2023-04-11T07:09:00.755Z,49.19
2023-04-11T07:10:05.796Z,49.51
2023-04-11T07:11:09.612Z,49.50
2023-04-11T07:12:13.831Z,48.97
2023-04-11T07:13:17.852Z,49.04
2023-04-11T07:14:20.142Z,49.13
2023-04-11T07:15:23.553Z,48.43
2023-04-11T07:16:27.886Z,48.05
2023-04-11T07:17:30.616Z,48.20
2023-04-11T07:18:33.215Z,48.61
2023-04-11T07:19:35.613Z,48.68
2023-04-11T07:20:37.672Z,48.50
2023-04-11T07:21:40.475Z,48.78
2023-04-11T07:22:42.502Z,48.20
2023-04-11T07:23:48.013Z,48.23
2023-04-11T07:24:52.510Z,48.20
2023-04-11T07:25:56.350Z,48.18
2023-04-11T07:27:02.134Z,47.83
2023-04-11T07:28:05.816Z,47.81
2023-04-11T07:29:11.003Z,47.70
2023-04-11T07:30:15.253Z,47.92
2023-04-11T07:31:18.016Z,48.33
2023-04-11T07:32:25.682Z,48.62
2023-04-11T07:33:28.881Z,48.74
2023-04-11T07:34:31.412Z,48.61
2023-04-11T07:35:35.938Z,48.68
2023-04-11T07:36:39.693Z,47.29
2023-04-11T07:37:42.025Z,46.95
2023-04-11T07:38:43.893Z,47.98
2023-04-11T07:39:45.738Z,47.30
2023-04-11T07:40:47.866Z,47.34
2023-04-11T07:41:49.878Z,47.04
2023-04-11T07:42:52.183Z,46.40
2023-04-11T07:43:55.612Z,44.14
2023-04-11T07:44:57.854Z,42.74
2023-04-11T07:45:59.952Z,43.20
2023-04-11T07:47:05.318Z,42.80
2023-04-11T07:48:08.089Z,42.74
2023-04-11T07:49:09.913Z,40.51
2023-04-11T07:50:13.367Z,41.29
2023-04-11T07:51:15.958Z,41.14
2023-04-11T07:52:18.003Z,40.78
2023-04-11T07:53:21.159Z,41.91
2023-04-11T07:54:23.493Z,40.92
2023-04-11T07:55:25.912Z,40.74
2023-04-11T07:56:27.963Z,40.28
2023-04-11T07:57:30.774Z,40.87
2023-04-11T07:58:33.229Z,41.05
2023-04-11T07:59:35.219Z,41.58
2023-04-11T08:00:37.668Z,40.89
2023-04-11T08:01:39.782Z,39.07
2023-04-11T08:02:45.187Z,36.81
2023-04-11T08:03:48.385Z,38.44
2023-04-11T08:04:51.148Z,36.24
2023-04-11T08:05:53.754Z,37.25
2023-04-11T08:06:55.714Z,36.41
2023-04-11T08:07:57.627Z,36.01
2023-04-11T08:08:59.531Z,36.36
2023-04-11T08:10:01.945Z,36.55
2023-04-11T08:11:04.717Z,36.56
2023-04-11T08:12:06.792Z,37.61
2023-04-11T08:13:09.443Z,36.32
2023-04-11T08:14:11.805Z,36.24
2023-04-11T08:15:14.519Z,36.68
2023-04-11T08:16:16.750Z,36.54
2023-04-11T08:17:27.655Z,36.25
2023-04-11T08:18:23.233Z,36.46
2023-04-11T08:19:25.148Z,36.41
2023-04-11T08:20:41.140Z,36.87
2023-04-11T08:22:52.736Z,37.22
2023-04-11T08:23:54.721Z,37.22
2023-04-11T08:24:57.753Z,37.01
2023-04-11T08:26:00.333Z,37.62
2023-04-11T08:27:03.092Z,38.77
2023-04-11T08:29:18.092Z,38.47
2023-04-11T08:30:21.022Z,39.34
2023-04-11T08:31:23.205Z,38.66
2023-04-11T08:32:26.126Z,37.88
2023-04-11T08:33:28.611Z,37.22
2023-04-11T08:34:33.575Z,37.29
2023-04-11T08:35:35.626Z,37.62
2023-04-11T08:36:38.174Z,37.57
2023-04-11T08:37:40.432Z,37.93
2023-04-11T08:38:43.206Z,37.97
2023-04-11T08:39:45.702Z,38.48
2023-04-11T08:40:47.751Z,38.70
2023-04-11T08:41:50.662Z,38.79
2023-04-11T08:43:00.451Z,38.17
2023-04-11T08:44:02.871Z,38.87
2023-04-11T08:45:13.028Z,39.54
2023-04-11T08:46:18.765Z,39.97
2023-04-11T08:47:22.812Z,40.47
2023-04-11T08:48:24.804Z,41.86
2023-04-11T08:49:30.636Z,43.11
2023-04-11T08:51:46.867Z,41.66
2023-04-11T08:52:49.157Z,40.58
2023-04-11T08:53:55.654Z,40.01
2023-04-11T08:54:58.258Z,39.92
2023-04-11T08:56:00.240Z,41.07
2023-04-11T08:57:03.567Z,39.33
2023-04-11T08:58:06.317Z,41.02
2023-04-11T08:59:12.396Z,40.28
2023-04-11T09:00:19.137Z,40.80
2023-04-11T09:01:30.428Z,40.75
2023-04-11T09:02:34.168Z,41.16
2023-04-11T09:03:53.830Z,41.10
2023-04-11T09:05:00.637Z,40.80
2023-04-11T09:06:06.940Z,41.10
2023-04-11T09:07:13.514Z,42.01
2023-04-11T09:08:16.399Z,42.48
2023-04-11T09:09:28.884Z,41.98
2023-04-11T09:10:31.579Z,42.58
2023-04-11T09:13:20.308Z,41.65
2023-04-11T09:14:28.153Z,40.14
2023-04-11T09:15:30.566Z,40.94
2023-04-11T09:16:37.728Z,41.76
2023-04-11T09:17:43.897Z,41.08
2023-04-11T09:18:46.902Z,42.80
2023-04-11T09:19:50.563Z,41.35
2023-04-11T09:20:58.749Z,40.27
2023-04-11T09:22:04.259Z,40.92
2023-04-11T09:23:06.353Z,41.61
2023-04-11T09:24:16.908Z,42.26
2023-04-11T09:25:23.701Z,41.43
2023-04-11T09:26:28.594Z,41.07
2023-04-11T09:27:31.697Z,41.63
2023-04-11T09:28:46.536Z,40.87
2023-04-11T09:29:48.653Z,40.78
2023-04-11T09:30:55.592Z,40.88
2023-04-11T09:31:58.696Z,40.98
2023-04-11T09:34:28.151Z,39.13
2023-04-11T09:35:30.619Z,39.00
2023-04-11T09:36:34.306Z,39.26
2023-04-11T09:39:22.336Z,40.35
2023-04-11T09:40:26.640Z,39.71
2023-04-11T09:41:35.954Z,40.73
2023-04-11T09:42:42.905Z,40.86
2023-04-11T09:43:54.139Z,41.04
2023-04-11T09:44:57.310Z,41.09
2023-04-11T09:46:10.893Z,41.35
2023-04-11T09:47:13.070Z,41.58
2023-04-11T09:48:15.617Z,42.13
2023-04-11T09:50:28.693Z,41.55
2023-04-11T09:51:37.017Z,40.40
2023-04-11T09:52:45.354Z,40.32
2023-04-11T09:53:50.531Z,39.61
2023-04-11T09:54:54.050Z,39.73
2023-04-11T09:55:56.665Z,39.60
2023-04-11T09:57:02.618Z,39.01
2023-04-11T09:58:05.423Z,38.63
2023-04-11T09:59:07.673Z,38.63
2023-04-11T10:01:23.886Z,39.08
2023-04-11T10:02:27.449Z,39.28
2023-04-11T10:03:31.178Z,39.13
2023-04-11T10:04:33.808Z,39.63
2023-04-11T10:05:41.406Z,40.10
2023-04-11T10:07:08.858Z,39.65
2023-04-11T10:08:31.938Z,39.92
2023-04-11T10:13:27.708Z,42.75
2023-04-11T10:14:41.842Z,43.04
2023-04-11T10:17:20.753Z,43.00
2023-04-11T10:18:20.824Z,42.52
2023-04-11T10:19:23.649Z,42.45
2023-04-11T10:22:02.052Z,41.97
2023-04-11T10:23:06.678Z,41.17
2023-04-11T10:24:13.482Z,41.13
2023-04-11T10:25:20.867Z,41.99
2023-04-11T10:26:26.800Z,40.42
2023-04-11T10:29:39.234Z,40.90
2023-04-11T10:30:47.641Z,41.72
2023-04-11T10:32:11.250Z,41.83
2023-04-11T10:33:19.708Z,42.42
2023-04-11T10:34:26.464Z,41.43
2023-04-11T10:35:29.768Z,40.73
2023-04-11T10:36:53.262Z,39.89
2023-04-11T10:37:55.578Z,41.20
2023-04-11T10:38:59.487Z,41.83
2023-04-11T10:40:04.660Z,41.80
2023-04-11T10:41:26.688Z,42.36
2023-04-11T10:42:43.146Z,41.28
2023-04-11T10:43:46.812Z,41.79
2023-04-11T10:45:10.896Z,41.45
2023-04-11T10:46:26.316Z,42.26
2023-04-11T10:47:31.782Z,41.77
2023-04-11T10:49:50.766Z,40.51
2023-04-11T10:50:55.621Z,41.52
2023-04-11T10:52:19.346Z,41.44
2023-04-11T10:53:38.571Z,40.77
2023-04-11T10:54:41.660Z,40.37
2023-04-11T10:55:54.357Z,41.12
2023-04-11T10:56:56.896Z,40.05
2023-04-11T10:58:21.836Z,41.35
2023-04-11T11:02:29.013Z,40.21
2023-04-11T11:03:32.631Z,40.61
2023-04-11T11:04:37.431Z,40.34
2023-04-11T11:05:46.447Z,40.88
2023-04-11T11:06:56.964Z,41.58
2023-04-11T11:07:55.811Z,41.85
2023-04-11T11:08:57.997Z,42.41
2023-04-11T11:10:02.368Z,41.24
2023-04-11T11:11:07.847Z,40.25
2023-04-11T11:12:17.307Z,39.83
2023-04-11T11:13:20.913Z,40.11
2023-04-11T11:14:38.769Z,40.81
2023-04-11T11:15:53.745Z,40.97
2023-04-11T11:16:57.809Z,40.82
2023-04-11T11:18:00.209Z,40.96
2023-04-11T11:19:04.734Z,41.20
2023-04-11T11:20:18.230Z,41.67
2023-04-11T11:22:28.634Z,41.83
2023-04-11T11:23:31.870Z,41.56
2023-04-11T11:24:37.092Z,41.56
2023-04-11T11:25:39.299Z,41.84
2023-04-11T11:26:43.250Z,42.00
2023-04-11T11:27:45.544Z,42.58
2023-04-11T11:28:50.273Z,42.38
2023-04-11T11:32:37.746Z,42.30
2023-04-11T11:34:43.682Z,42.37
2023-04-11T11:37:06.264Z,43.05
2023-04-11T11:39:21.295Z,41.76
2023-04-11T11:40:24.468Z,41.85
2023-04-11T11:41:27.595Z,41.88
2023-04-11T11:42:29.937Z,42.04
2023-04-11T11:43:36.021Z,42.21
2023-04-11T11:44:39.178Z,42.14
2023-04-11T11:45:42.609Z,42.06
2023-04-11T11:47:02.818Z,41.68
2023-04-11T11:49:51.742Z,41.04
2023-04-11T11:50:55.931Z,40.65
2023-04-11T11:51:58.133Z,40.96
2023-04-11T11:53:16.786Z,41.44
2023-04-11T11:54:18.986Z,41.70
2023-04-11T11:57:54.808Z,41.08
2023-04-11T11:58:57.202Z,40.87
2023-04-11T12:00:02.562Z,41.27
2023-04-11T12:02:16.565Z,41.88
2023-04-11T12:03:25.227Z,41.81
2023-04-11T12:04:27.547Z,40.80
2023-04-11T12:05:32.574Z,40.74
2023-04-11T12:06:35.249Z,40.76
2023-04-11T12:07:38.364Z,40.69
2023-04-11T12:08:40.969Z,40.48
2023-04-11T12:09:47.221Z,40.50
2023-04-11T12:10:51.382Z,40.87
2023-04-11T12:11:56.113Z,41.00
2023-04-11T12:12:58.387Z,40.83
2023-04-11T12:14:00.525Z,40.62
2023-04-11T12:15:11.503Z,40.51
2023-04-11T12:16:16.144Z,40.47
2023-04-11T12:17:18.478Z,40.28
2023-04-11T12:18:25.453Z,40.24
2023-04-11T12:19:33.138Z,40.37
2023-04-11T12:20:35.598Z,40.48
2023-04-11T12:21:37.897Z,40.63
2023-04-11T12:22:52.143Z,40.92
2023-04-11T12:23:57.994Z,40.86
2023-04-11T12:26:24.932Z,41.16
2023-04-11T12:27:29.946Z,41.63
2023-04-11T12:28:32.059Z,41.94
2023-04-11T12:29:34.024Z,42.16
2023-04-11T12:30:36.752Z,42.40
2023-04-11T12:31:45.340Z,42.69
2023-04-11T12:32:50.169Z,43.25
2023-04-11T12:33:52.786Z,43.61
2023-04-11T12:34:55.449Z,43.80
2023-04-11T12:35:57.625Z,43.84
2023-04-11T12:37:03.469Z,43.71
2023-04-11T12:38:05.461Z,43.28
2023-04-11T12:39:07.762Z,43.52
2023-04-11T12:40:11.318Z,43.61
2023-04-11T12:41:30.147Z,43.56
2023-04-11T12:42:20.953Z,42.66
2023-04-11T12:43:21.731Z,42.17
2023-04-11T12:44:23.965Z,41.33
2023-04-11T12:45:27.889Z,41.23
2023-04-11T12:46:31.164Z,41.12
2023-04-11T12:47:34.266Z,41.40
2023-04-11T12:48:36.396Z,41.31
2023-04-11T12:49:39.741Z,41.11
2023-04-11T12:50:44.367Z,41.09
2023-04-11T12:51:47.114Z,40.91
2023-04-11T12:52:50.394Z,40.99
2023-04-11T12:53:52.506Z,40.56
2023-04-11T12:54:55.092Z,40.61
2023-04-11T12:55:57.364Z,40.58
2023-04-11T12:57:05.618Z,40.45
2023-04-11T12:58:09.235Z,40.19
2023-04-11T13:08:45.612Z,41.04
2023-04-11T13:10:58.042Z,40.35
2023-04-11T13:16:11.395Z,39.39
2023-04-11T13:17:20.368Z,39.41
2023-04-11T13:18:22.407Z,39.68
2023-04-11T13:19:26.158Z,39.59
2023-04-11T13:21:47.893Z,39.56
2023-04-11T13:24:08.132Z,39.58
2023-04-11T13:25:10.628Z,39.77
2023-04-11T13:26:15.277Z,39.54
2023-04-11T13:27:17.376Z,39.69
2023-04-11T13:28:20.533Z,39.50
2023-04-11T13:29:22.653Z,39.61
2023-04-11T13:30:24.817Z,39.84
2023-04-11T13:31:27.618Z,40.10
2023-04-11T13:32:29.983Z,40.57
2023-04-11T13:33:40.169Z,40.81
2023-04-11T13:34:45.627Z,41.52
2023-04-11T13:35:47.695Z,44.88
2023-04-11T13:37:03.665Z,44.50
2023-04-11T13:38:08.645Z,44.22
2023-04-11T13:39:10.790Z,47.22
2023-04-11T13:40:13.845Z,44.91
2023-04-11T13:41:18.373Z,47.20
2023-04-11T13:42:20.460Z,45.36
2023-04-11T13:43:25.713Z,46.67
2023-04-11T13:44:27.843Z,48.21
2023-04-11T13:45:34.101Z,48.22
2023-04-11T13:46:36.505Z,52.85
2023-04-11T13:47:40.027Z,53.64
2023-04-11T13:48:43.460Z,50.82
2023-04-11T13:49:45.651Z,52.29
2023-04-11T13:50:48.027Z,45.98
2023-04-11T13:51:55.152Z,43.99
2023-04-11T13:52:58.237Z,42.32
2023-04-11T13:54:02.239Z,42.10
2023-04-11T13:55:05.779Z,42.00
2023-04-11T13:56:09.748Z,41.92
2023-04-11T13:57:11.872Z,41.58
2023-04-11T13:58:14.762Z,41.80
2023-04-11T13:59:17.549Z,42.29
2023-04-11T14:00:21.982Z,42.33
2023-04-11T14:01:24.383Z,42.30
2023-04-11T14:02:27.695Z,42.05
2023-04-11T14:03:30.097Z,41.67
2023-04-11T14:04:35.911Z,41.69
2023-04-11T14:05:38.736Z,41.61
2023-04-11T14:06:41.133Z,41.32
2023-04-11T14:07:46.747Z,41.04
2023-04-11T14:09:00.318Z,41.29
2023-04-11T14:10:06.245Z,41.51
2023-04-11T14:12:32.851Z,41.62
2023-04-11T14:13:35.917Z,41.63
2023-04-11T14:14:38.230Z,41.90
2023-04-11T14:15:40.284Z,42.10
2023-04-11T14:16:42.390Z,41.86
2023-04-11T14:18:57.228Z,42.73
2023-04-11T14:19:59.434Z,41.95
2023-04-11T14:21:04.960Z,41.66
2023-04-11T14:22:07.052Z,42.26
2023-04-11T14:23:08.967Z,42.18
2023-04-11T14:24:15.808Z,42.30
2023-04-11T14:25:20.566Z,42.31
2023-04-11T14:26:23.666Z,42.61
2023-04-11T14:27:25.834Z,41.89
2023-04-11T14:28:28.498Z,42.04
2023-04-11T14:29:31.927Z,41.93
2023-04-11T14:30:36.261Z,41.84
2023-04-11T14:31:40.302Z,41.75
2023-04-11T14:32:43.331Z,41.77
2023-04-11T14:33:48.470Z,41.67
2023-04-11T14:34:54.661Z,41.81
2023-04-11T14:35:59.998Z,41.92
2023-04-11T14:38:15.945Z,42.12
2023-04-11T14:39:23.607Z,42.52
2023-04-11T14:40:28.170Z,42.50
2023-04-11T14:41:30.267Z,42.59
2023-04-11T14:42:38.811Z,42.78
2023-04-11T14:43:43.631Z,42.82
2023-04-11T14:44:45.747Z,42.83
2023-04-11T14:45:49.952Z,42.90
2023-04-11T14:46:54.139Z,42.82